sensor_id;sensor_type;location;lat;lon;timestamp;pressure;altitude;pressure_sealevel;temperature;humidity
70971;BME280;58632;51.718;19.446;2022-08-19T00:00:00;99172.40;;;21.09;71.25
70971;BME280;58632;51.718;19.446;2022-08-19T00:02:25;99167.33;;;21.07;71.18
70971;BME280;58632;51.718;19.446;2022-08-19T00:04:51;99167.91;;;21.03;71.44
70971;BME280;58632;51.718;19.446;2022-08-19T00:07:20;99157.90;;;21.03;71.30
70971;BME280;58632;51.718;19.446;2022-08-19T00:09:47;99156.48;;;21.01;71.41
70971;BME280;58632;51.718;19.446;2022-08-19T00:12:13;99153.05;;;21.01;71.75
70971;BME280;58632;51.718;19.446;2022-08-19T00:14:38;99153.61;;;21.01;71.62
70971;BME280;58632;51.718;19.446;2022-08-19T00:17:07;99152.73;;;21.00;71.70
70971;BME280;58632;51.718;19.446;2022-08-19T00:19:33;99148.30;;;20.98;71.70
70971;BME280;58632;51.718;19.446;2022-08-19T00:21:59;99142.96;;;20.99;71.71
70971;BME280;58632;51.718;19.446;2022-08-19T00:24:25;99137.91;;;20.94;71.84
70971;BME280;58632;51.718;19.446;2022-08-19T00:26:51;99136.27;;;20.90;72.00
70971;BME280;58632;51.718;19.446;2022-08-19T00:29:19;99134.23;;;20.86;71.94
70971;BME280;58632;51.718;19.446;2022-08-19T00:31:46;99129.64;;;20.83;72.02
70971;BME280;58632;51.718;19.446;2022-08-19T00:34:13;99128.15;;;20.81;72.24
70971;BME280;58632;51.718;19.446;2022-08-19T00:36:41;99126.77;;;20.83;72.31
70971;BME280;58632;51.718;19.446;2022-08-19T00:39:08;99124.25;;;20.81;72.33
70971;BME280;58632;51.718;19.446;2022-08-19T00:41:34;99126.95;;;20.81;72.46
70971;BME280;58632;51.718;19.446;2022-08-19T00:44:18;99131.81;;;20.79;72.42
70971;BME280;58632;51.718;19.446;2022-08-19T00:46:46;99135.86;;;20.60;81.73
70971;BME280;58632;51.718;19.446;2022-08-19T00:49:19;99142.10;;;20.13;90.74
70971;BME280;58632;51.718;19.446;2022-08-19T00:51:48;99150.11;;;19.73;93.02
70971;BME280;58632;51.718;19.446;2022-08-19T00:54:16;99148.63;;;19.51;94.21
70971;BME280;58632;51.718;19.446;2022-08-19T00:56:43;99148.54;;;19.44;95.03
70971;BME280;58632;51.718;19.446;2022-08-19T00:59:10;99151.48;;;19.42;95.29
70971;BME280;58632;51.718;19.446;2022-08-19T01:01:38;99146.65;;;19.36;95.27
70971;BME280;58632;51.718;19.446;2022-08-19T01:04:04;99150.29;;;19.30;95.37
70971;BME280;58632;51.718;19.446;2022-08-19T01:06:31;99152.51;;;19.19;95.39
70971;BME280;58632;51.718;19.446;2022-08-19T01:08:59;99150.83;;;19.13;95.63
70971;BME280;58632;51.718;19.446;2022-08-19T01:11:26;19828.67;;;-98.58;18.30
70971;BME280;58632;51.718;19.446;2022-08-19T01:13:52;-1.00;;;-128.00;-1.00
70971;BME280;58632;51.718;19.446;2022-08-19T01:16:22;-1.00;;;-128.00;-1.00
70971;BME280;58632;51.718;19.446;2022-08-19T01:18:49;-1.00;;;-128.00;-1.00
70971;BME280;58632;51.718;19.446;2022-08-19T01:21:42;-1.00;;;-128.00;-1.00
70971;BME280;58632;51.718;19.446;2022-08-19T01:24:12;-1.00;;;-128.00;-1.00
70971;BME280;58632;51.718;19.446;2022-08-19T01:26:41;-1.00;;;-128.00;-1.00
70971;BME280;58632;51.718;19.446;2022-08-19T01:29:08;-1.00;;;-128.00;-1.00
70971;BME280;58632;51.718;19.446;2022-08-19T01:31:35;-1.00;;;-128.00;-1.00
70971;BME280;58632;51.718;19.446;2022-08-19T01:34:03;-1.00;;;-128.00;-1.00
70971;BME280;58632;51.718;19.446;2022-08-19T01:36:33;-1.00;;;-128.00;-1.00
70971;BME280;58632;51.718;19.446;2022-08-19T01:39:00;-1.00;;;-128.00;-1.00
70971;BME280;58632;51.718;19.446;2022-08-19T01:41:27;-1.00;;;-128.00;-1.00
70971;BME280;58632;51.718;19.446;2022-08-19T01:43:53;-1.00;;;-128.00;-1.00
70971;BME280;58632;51.718;19.446;2022-08-19T01:46:19;-1.00;;;-128.00;-1.00
70971;BME280;58632;51.718;19.446;2022-08-19T01:48:45;-1.00;;;-128.00;-1.00
70971;BME280;58632;51.718;19.446;2022-08-19T01:51:12;-1.00;;;-128.00;-1.00
70971;BME280;58632;51.718;19.446;2022-08-19T01:53:38;-1.00;;;-128.00;-1.00
70971;BME280;58632;51.718;19.446;2022-08-19T01:56:04;-1.00;;;-128.00;-1.00
70971;BME280;58632;51.718;19.446;2022-08-19T01:58:32;-1.00;;;-128.00;-1.00
70971;BME280;58632;51.718;19.446;2022-08-19T02:01:02;-1.00;;;-128.00;-1.00
70971;BME280;58632;51.718;19.446;2022-08-19T02:03:28;-1.00;;;-128.00;-1.00
70971;BME280;58632;51.718;19.446;2022-08-19T02:05:59;-1.00;;;-128.00;-1.00
70971;BME280;58632;51.718;19.446;2022-08-19T02:08:29;-1.00;;;-128.00;-1.00
70971;BME280;58632;51.718;19.446;2022-08-19T02:10:55;-1.00;;;-128.00;-1.00
70971;BME280;58632;51.718;19.446;2022-08-19T02:13:23;-1.00;;;-128.00;-1.00
70971;BME280;58632;51.718;19.446;2022-08-19T02:15:49;-1.00;;;-128.00;-1.00
70971;BME280;58632;51.718;19.446;2022-08-19T02:18:15;-1.00;;;-128.00;-1.00
70971;BME280;58632;51.718;19.446;2022-08-19T02:20:42;-1.00;;;-128.00;-1.00
70971;BME280;58632;51.718;19.446;2022-08-19T02:23:10;-1.00;;;-128.00;-1.00
70971;BME280;58632;51.718;19.446;2022-08-19T02:25:36;-1.00;;;-128.00;-1.00
70971;BME280;58632;51.718;19.446;2022-08-19T02:28:02;-1.00;;;-128.00;-1.00
70971;BME280;58632;51.718;19.446;2022-08-19T02:30:29;-1.00;;;-128.00;-1.00
70971;BME280;58632;51.718;19.446;2022-08-19T02:32:55;-1.00;;;-128.00;-1.00
70971;BME280;58632;51.718;19.446;2022-08-19T02:35:21;-1.00;;;-128.00;-1.00
70971;BME280;58632;51.718;19.446;2022-08-19T02:37:47;-1.00;;;-128.00;-1.00
70971;BME280;58632;51.718;19.446;2022-08-19T02:40:32;-1.00;;;-128.00;-1.00
70971;BME280;58632;51.718;19.446;2022-08-19T02:43:03;-1.00;;;-128.00;-1.00
70971;BME280;58632;51.718;19.446;2022-08-19T02:45:34;-1.00;;;-128.00;-1.00
70971;BME280;58632;51.718;19.446;2022-08-19T02:48:00;-1.00;;;-128.00;-1.00
70971;BME280;58632;51.718;19.446;2022-08-19T02:50:26;-1.00;;;-128.00;-1.00
70971;BME280;58632;51.718;19.446;2022-08-19T02:52:51;-1.00;;;-128.00;-1.00
70971;BME280;58632;51.718;19.446;2022-08-19T02:55:17;-1.00;;;-128.00;-1.00
70971;BME280;58632;51.718;19.446;2022-08-19T02:57:44;-1.00;;;-128.00;-1.00
70971;BME280;58632;51.718;19.446;2022-08-19T03:00:10;-1.00;;;-128.00;-1.00
70971;BME280;58632;51.718;19.446;2022-08-19T03:02:40;-1.00;;;-128.00;-1.00
70971;BME280;58632;51.718;19.446;2022-08-19T03:05:07;-1.00;;;-128.00;-1.00
70971;BME280;58632;51.718;19.446;2022-08-19T03:07:34;-1.00;;;-128.00;-1.00
70971;BME280;58632;51.718;19.446;2022-08-19T03:10:00;-1.00;;;-128.00;-1.00
70971;BME280;58632;51.718;19.446;2022-08-19T03:12:26;-1.00;;;-128.00;-1.00
70971;BME280;58632;51.718;19.446;2022-08-19T03:14:52;-1.00;;;-128.00;-1.00
70971;BME280;58632;51.718;19.446;2022-08-19T03:17:19;-1.00;;;-128.00;-1.00
70971;BME280;58632;51.718;19.446;2022-08-19T03:19:44;-1.00;;;-128.00;-1.00
70971;BME280;58632;51.718;19.446;2022-08-19T03:22:10;-1.00;;;-128.00;-1.00
70971;BME280;58632;51.718;19.446;2022-08-19T03:24:37;-1.00;;;-128.00;-1.00
70971;BME280;58632;51.718;19.446;2022-08-19T03:27:03;-1.00;;;-128.00;-1.00
70971;BME280;58632;51.718;19.446;2022-08-19T03:29:31;-1.00;;;-128.00;-1.00
70971;BME280;58632;51.718;19.446;2022-08-19T03:31:59;-1.00;;;-128.00;-1.00
70971;BME280;58632;51.718;19.446;2022-08-19T03:34:28;-1.00;;;-128.00;-1.00
70971;BME280;58632;51.718;19.446;2022-08-19T03:36:55;-1.00;;;-128.00;-1.00
70971;BME280;58632;51.718;19.446;2022-08-19T03:39:21;-1.00;;;-128.00;-1.00
70971;BME280;58632;51.718;19.446;2022-08-19T03:41:51;-1.00;;;-128.00;-1.00
70971;BME280;58632;51.718;19.446;2022-08-19T03:44:20;-1.00;;;-128.00;-1.00
70971;BME280;58632;51.718;19.446;2022-08-19T03:46:51;-1.00;;;-128.00;-1.00
70971;BME280;58632;51.718;19.446;2022-08-19T03:49:17;-1.00;;;-128.00;-1.00
70971;BME280;58632;51.718;19.446;2022-08-19T03:51:44;-1.00;;;-128.00;-1.00
70971;BME280;58632;51.718;19.446;2022-08-19T03:54:12;-1.00;;;-128.00;-1.00
70971;BME280;58632;51.718;19.446;2022-08-19T03:56:40;-1.00;;;-128.00;-1.00
70971;BME280;58632;51.718;19.446;2022-08-19T03:59:10;-1.00;;;-128.00;-1.00
70971;BME280;58632;51.718;19.446;2022-08-19T04:01:36;-1.00;;;-128.00;-1.00
70971;BME280;58632;51.718;19.446;2022-08-19T04:04:03;-1.00;;;-128.00;-1.00
70971;BME280;58632;51.718;19.446;2022-08-19T04:06:34;-1.00;;;-128.00;-1.00
70971;BME280;58632;51.718;19.446;2022-08-19T04:09:03;-1.00;;;-128.00;-1.00
70971;BME280;58632;51.718;19.446;2022-08-19T04:11:38;-1.00;;;-128.00;-1.00
70971;BME280;58632;51.718;19.446;2022-08-19T04:14:09;-1.00;;;-128.00;-1.00
70971;BME280;58632;51.718;19.446;2022-08-19T04:16:35;-1.00;;;-128.00;-1.00
70971;BME280;58632;51.718;19.446;2022-08-19T04:19:03;-1.00;;;-128.00;-1.00
70971;BME280;58632;51.718;19.446;2022-08-19T04:21:30;-1.00;;;-128.00;-1.00
70971;BME280;58632;51.718;19.446;2022-08-19T04:23:56;-1.00;;;-128.00;-1.00
70971;BME280;58632;51.718;19.446;2022-08-19T04:26:28;-1.00;;;-128.00;-1.00
70971;BME280;58632;51.718;19.446;2022-08-19T04:28:54;-1.00;;;-128.00;-1.00
70971;BME280;58632;51.718;19.446;2022-08-19T04:31:24;-1.00;;;-128.00;-1.00
70971;BME280;58632;51.718;19.446;2022-08-19T04:33:55;-1.00;;;-128.00;-1.00
70971;BME280;58632;51.718;19.446;2022-08-19T04:36:30;-1.00;;;-128.00;-1.00
70971;BME280;58632;51.718;19.446;2022-08-19T04:38:58;-1.00;;;-128.00;-1.00
70971;BME280;58632;51.718;19.446;2022-08-19T04:41:25;-1.00;;;-128.00;-1.00
70971;BME280;58632;51.718;19.446;2022-08-19T04:44:09;-1.00;;;-128.00;-1.00
70971;BME280;58632;51.718;19.446;2022-08-19T04:46:35;-1.00;;;-128.00;-1.00
70971;BME280;58632;51.718;19.446;2022-08-19T04:49:03;-1.00;;;-128.00;-1.00
70971;BME280;58632;51.718;19.446;2022-08-19T04:51:31;-1.00;;;-128.00;-1.00
70971;BME280;58632;51.718;19.446;2022-08-19T04:53:57;-1.00;;;-128.00;-1.00
70971;BME280;58632;51.718;19.446;2022-08-19T04:56:25;-1.00;;;-128.00;-1.00
70971;BME280;58632;51.718;19.446;2022-08-19T04:58:53;-1.00;;;-128.00;-1.00
70971;BME280;58632;51.718;19.446;2022-08-19T05:01:27;-1.00;;;-128.00;-1.00
70971;BME280;58632;51.718;19.446;2022-08-19T05:03:58;-1.00;;;-128.00;-1.00
70971;BME280;58632;51.718;19.446;2022-08-19T05:06:24;-1.00;;;-128.00;-1.00
70971;BME280;58632;51.718;19.446;2022-08-19T05:08:51;-1.00;;;-128.00;-1.00
70971;BME280;58632;51.718;19.446;2022-08-19T05:11:19;-1.00;;;-128.00;-1.00
70971;BME280;58632;51.718;19.446;2022-08-19T05:13:48;-1.00;;;-128.00;-1.00
70971;BME280;58632;51.718;19.446;2022-08-19T05:16:16;-1.00;;;-128.00;-1.00
70971;BME280;58632;51.718;19.446;2022-08-19T05:18:43;-1.00;;;-128.00;-1.00
70971;BME280;58632;51.718;19.446;2022-08-19T05:21:28;-1.00;;;-128.00;-1.00
70971;BME280;58632;51.718;19.446;2022-08-19T05:24:13;-1.00;;;-128.00;-1.00
70971;BME280;58632;51.718;19.446;2022-08-19T05:26:41;-1.00;;;-128.00;-1.00
70971;BME280;58632;51.718;19.446;2022-08-19T05:29:08;-1.00;;;-128.00;-1.00
70971;BME280;58632;51.718;19.446;2022-08-19T05:31:35;-1.00;;;-128.00;-1.00
70971;BME280;58632;51.718;19.446;2022-08-19T05:34:02;-1.00;;;-128.00;-1.00
70971;BME280;58632;51.718;19.446;2022-08-19T05:36:34;-1.00;;;-128.00;-1.00
70971;BME280;58632;51.718;19.446;2022-08-19T05:39:00;-1.00;;;-128.00;-1.00
70971;BME280;58632;51.718;19.446;2022-08-19T05:41:26;-1.00;;;-128.00;-1.00
70971;BME280;58632;51.718;19.446;2022-08-19T05:43:56;-1.00;;;-128.00;-1.00
70971;BME280;58632;51.718;19.446;2022-08-19T05:46:22;-1.00;;;-128.00;-1.00
70971;BME280;58632;51.718;19.446;2022-08-19T05:48:48;-1.00;;;-128.00;-1.00
70971;BME280;58632;51.718;19.446;2022-08-19T05:51:14;-1.00;;;-128.00;-1.00
70971;BME280;58632;51.718;19.446;2022-08-19T05:53:42;-1.00;;;-128.00;-1.00
70971;BME280;58632;51.718;19.446;2022-08-19T05:56:10;-1.00;;;-128.00;-1.00
70971;BME280;58632;51.718;19.446;2022-08-19T05:58:37;-1.00;;;-128.00;-1.00
70971;BME280;58632;51.718;19.446;2022-08-19T06:01:09;-1.00;;;-128.00;-1.00
70971;BME280;58632;51.718;19.446;2022-08-19T06:03:35;-1.00;;;-128.00;-1.00
70971;BME280;58632;51.718;19.446;2022-08-19T06:06:06;-1.00;;;-128.00;-1.00
70971;BME280;58632;51.718;19.446;2022-08-19T06:08:34;-1.00;;;-128.00;-1.00
70971;BME280;58632;51.718;19.446;2022-08-19T06:11:22;-1.00;;;-128.00;-1.00
70971;BME280;58632;51.718;19.446;2022-08-19T06:13:50;-1.00;;;-128.00;-1.00
70971;BME280;58632;51.718;19.446;2022-08-19T06:16:21;-1.00;;;-128.00;-1.00
70971;BME280;58632;51.718;19.446;2022-08-19T06:18:49;-1.00;;;-128.00;-1.00
70971;BME280;58632;51.718;19.446;2022-08-19T06:21:21;-1.00;;;-128.00;-1.00
70971;BME280;58632;51.718;19.446;2022-08-19T06:23:48;-1.00;;;-128.00;-1.00
70971;BME280;58632;51.718;19.446;2022-08-19T06:26:15;-1.00;;;-128.00;-1.00
70971;BME280;58632;51.718;19.446;2022-08-19T06:28:41;-1.00;;;-128.00;-1.00
70971;BME280;58632;51.718;19.446;2022-08-19T06:31:19;-1.00;;;-128.00;-1.00
70971;BME280;58632;51.718;19.446;2022-08-19T06:33:47;-1.00;;;-128.00;-1.00
70971;BME280;58632;51.718;19.446;2022-08-19T06:38:43;-1.00;;;-128.00;-1.00
70971;BME280;58632;51.718;19.446;2022-08-19T06:41:09;-1.00;;;-128.00;-1.00
70971;BME280;58632;51.718;19.446;2022-08-19T06:43:35;-1.00;;;-128.00;-1.00
70971;BME280;58632;51.718;19.446;2022-08-19T06:46:01;-1.00;;;-128.00;-1.00
70971;BME280;58632;51.718;19.446;2022-08-19T06:48:29;-1.00;;;-128.00;-1.00
70971;BME280;58632;51.718;19.446;2022-08-19T06:50:55;-1.00;;;-128.00;-1.00
70971;BME280;58632;51.718;19.446;2022-08-19T06:53:21;-1.00;;;-128.00;-1.00
70971;BME280;58632;51.718;19.446;2022-08-19T06:55:47;-1.00;;;-128.00;-1.00
70971;BME280;58632;51.718;19.446;2022-08-19T06:58:13;-1.00;;;-128.00;-1.00
70971;BME280;58632;51.718;19.446;2022-08-19T07:00:39;-1.00;;;-128.00;-1.00
70971;BME280;58632;51.718;19.446;2022-08-19T07:03:05;-1.00;;;-128.00;-1.00
70971;BME280;58632;51.718;19.446;2022-08-19T07:05:31;-1.00;;;-128.00;-1.00
70971;BME280;58632;51.718;19.446;2022-08-19T07:07:57;-1.00;;;-128.00;-1.00
70971;BME280;58632;51.718;19.446;2022-08-19T07:10:23;-1.00;;;-128.00;-1.00
70971;BME280;58632;51.718;19.446;2022-08-19T07:12:48;-1.00;;;-128.00;-1.00
70971;BME280;58632;51.718;19.446;2022-08-19T07:15:15;-1.00;;;-128.00;-1.00
70971;BME280;58632;51.718;19.446;2022-08-19T07:17:41;-1.00;;;-128.00;-1.00
70971;BME280;58632;51.718;19.446;2022-08-19T07:20:09;-1.00;;;-128.00;-1.00
70971;BME280;58632;51.718;19.446;2022-08-19T07:22:36;-1.00;;;-128.00;-1.00
70971;BME280;58632;51.718;19.446;2022-08-19T07:25:05;-1.00;;;-128.00;-1.00
70971;BME280;58632;51.718;19.446;2022-08-19T07:27:31;-1.00;;;-128.00;-1.00
70971;BME280;58632;51.718;19.446;2022-08-19T07:29:57;-1.00;;;-128.00;-1.00
70971;BME280;58632;51.718;19.446;2022-08-19T07:32:24;-1.00;;;-128.00;-1.00
70971;BME280;58632;51.718;19.446;2022-08-19T07:34:52;-1.00;;;-128.00;-1.00
70971;BME280;58632;51.718;19.446;2022-08-19T07:37:17;-1.00;;;-128.00;-1.00
70971;BME280;58632;51.718;19.446;2022-08-19T07:39:43;-1.00;;;-128.00;-1.00
70971;BME280;58632;51.718;19.446;2022-08-19T07:42:10;-1.00;;;-128.00;-1.00
70971;BME280;58632;51.718;19.446;2022-08-19T07:44:36;-1.00;;;-128.00;-1.00
70971;BME280;58632;51.718;19.446;2022-08-19T07:47:04;-1.00;;;-128.00;-1.00
70971;BME280;58632;51.718;19.446;2022-08-19T07:49:30;-1.00;;;-128.00;-1.00
70971;BME280;58632;51.718;19.446;2022-08-19T07:51:58;-1.00;;;-128.00;-1.00
70971;BME280;58632;51.718;19.446;2022-08-19T07:54:25;-1.00;;;-128.00;-1.00
70971;BME280;58632;51.718;19.446;2022-08-19T07:56:53;-1.00;;;-128.00;-1.00
70971;BME280;58632;51.718;19.446;2022-08-19T07:59:22;-1.00;;;-128.00;-1.00
70971;BME280;58632;51.718;19.446;2022-08-19T08:01:48;-1.00;;;-128.00;-1.00
70971;BME280;58632;51.718;19.446;2022-08-19T08:04:16;-1.00;;;-128.00;-1.00
70971;BME280;58632;51.718;19.446;2022-08-19T08:07:01;-1.00;;;-128.00;-1.00
70971;BME280;58632;51.718;19.446;2022-08-19T08:09:46;-1.00;;;-128.00;-1.00
70971;BME280;58632;51.718;19.446;2022-08-19T08:12:13;-1.00;;;-128.00;-1.00
70971;BME280;58632;51.718;19.446;2022-08-19T08:14:47;-1.00;;;-128.00;-1.00
70971;BME280;58632;51.718;19.446;2022-08-19T08:17:15;-1.00;;;-128.00;-1.00
70971;BME280;58632;51.718;19.446;2022-08-19T08:19:42;-1.00;;;-128.00;-1.00
70971;BME280;58632;51.718;19.446;2022-08-19T08:22:09;-1.00;;;-128.00;-1.00
70971;BME280;58632;51.718;19.446;2022-08-19T08:24:55;-1.00;;;-128.00;-1.00
70971;BME280;58632;51.718;19.446;2022-08-19T08:27:24;-1.00;;;-128.00;-1.00
70971;BME280;58632;51.718;19.446;2022-08-19T08:29:50;-1.00;;;-128.00;-1.00
70971;BME280;58632;51.718;19.446;2022-08-19T08:32:16;-1.00;;;-128.00;-1.00
70971;BME280;58632;51.718;19.446;2022-08-19T08:34:41;-1.00;;;-128.00;-1.00
70971;BME280;58632;51.718;19.446;2022-08-19T08:37:07;-1.00;;;-128.00;-1.00
70971;BME280;58632;51.718;19.446;2022-08-19T08:39:33;-1.00;;;-128.00;-1.00
70971;BME280;58632;51.718;19.446;2022-08-19T08:42:05;-1.00;;;-128.00;-1.00
70971;BME280;58632;51.718;19.446;2022-08-19T08:44:59;-1.00;;;-128.00;-1.00
70971;BME280;58632;51.718;19.446;2022-08-19T08:47:27;-1.00;;;-128.00;-1.00
70971;BME280;58632;51.718;19.446;2022-08-19T08:49:57;-1.00;;;-128.00;-1.00
70971;BME280;58632;51.718;19.446;2022-08-19T08:52:30;-1.00;;;-128.00;-1.00
70971;BME280;58632;51.718;19.446;2022-08-19T08:55:03;-1.00;;;-128.00;-1.00
70971;BME280;58632;51.718;19.446;2022-08-19T08:57:49;-1.00;;;-128.00;-1.00
70971;BME280;58632;51.718;19.446;2022-08-19T09:00:28;-1.00;;;-128.00;-1.00
70971;BME280;58632;51.718;19.446;2022-08-19T09:02:55;-1.00;;;-128.00;-1.00
70971;BME280;58632;51.718;19.446;2022-08-19T09:05:26;-1.00;;;-128.00;-1.00
70971;BME280;58632;51.718;19.446;2022-08-19T09:08:17;-1.00;;;-128.00;-1.00
70971;BME280;58632;51.718;19.446;2022-08-19T09:10:53;-1.00;;;-128.00;-1.00
70971;BME280;58632;51.718;19.446;2022-08-19T09:15:54;-1.00;;;-128.00;-1.00
70971;BME280;58632;51.718;19.446;2022-08-19T09:18:23;-1.00;;;-128.00;-1.00
70971;BME280;58632;51.718;19.446;2022-08-19T09:20:48;-1.00;;;-128.00;-1.00
70971;BME280;58632;51.718;19.446;2022-08-19T09:23:14;-1.00;;;-128.00;-1.00
70971;BME280;58632;51.718;19.446;2022-08-19T09:25:40;-1.00;;;-128.00;-1.00
70971;BME280;58632;51.718;19.446;2022-08-19T09:28:06;-1.00;;;-128.00;-1.00
70971;BME280;58632;51.718;19.446;2022-08-19T09:30:36;-1.00;;;-128.00;-1.00
70971;BME280;58632;51.718;19.446;2022-08-19T09:33:04;-1.00;;;-128.00;-1.00
70971;BME280;58632;51.718;19.446;2022-08-19T09:35:30;-1.00;;;-128.00;-1.00
70971;BME280;58632;51.718;19.446;2022-08-19T09:37:57;-1.00;;;-128.00;-1.00
70971;BME280;58632;51.718;19.446;2022-08-19T09:40:24;-1.00;;;-128.00;-1.00
70971;BME280;58632;51.718;19.446;2022-08-19T09:42:51;-1.00;;;-128.00;-1.00
70971;BME280;58632;51.718;19.446;2022-08-19T09:45:20;-1.00;;;-128.00;-1.00
70971;BME280;58632;51.718;19.446;2022-08-19T09:47:48;-1.00;;;-128.00;-1.00
70971;BME280;58632;51.718;19.446;2022-08-19T09:50:16;-1.00;;;-128.00;-1.00
70971;BME280;58632;51.718;19.446;2022-08-19T09:52:44;-1.00;;;-128.00;-1.00
70971;BME280;58632;51.718;19.446;2022-08-19T09:55:10;-1.00;;;-128.00;-1.00
70971;BME280;58632;51.718;19.446;2022-08-19T09:57:37;-1.00;;;-128.00;-1.00
70971;BME280;58632;51.718;19.446;2022-08-19T10:00:06;-1.00;;;-128.00;-1.00
70971;BME280;58632;51.718;19.446;2022-08-19T10:02:33;-1.00;;;-128.00;-1.00
70971;BME280;58632;51.718;19.446;2022-08-19T10:04:58;-1.00;;;-128.00;-1.00
70971;BME280;58632;51.718;19.446;2022-08-19T10:07:43;-1.00;;;-128.00;-1.00
70971;BME280;58632;51.718;19.446;2022-08-19T10:10:09;-1.00;;;-128.00;-1.00
70971;BME280;58632;51.718;19.446;2022-08-19T10:12:35;-1.00;;;-128.00;-1.00
70971;BME280;58632;51.718;19.446;2022-08-19T10:15:00;-1.00;;;-128.00;-1.00
70971;BME280;58632;51.718;19.446;2022-08-19T10:17:27;-1.00;;;-128.00;-1.00
70971;BME280;58632;51.718;19.446;2022-08-19T10:19:54;-1.00;;;-128.00;-1.00
70971;BME280;58632;51.718;19.446;2022-08-19T10:22:20;-1.00;;;-128.00;-1.00
70971;BME280;58632;51.718;19.446;2022-08-19T10:24:45;-1.00;;;-128.00;-1.00
70971;BME280;58632;51.718;19.446;2022-08-19T10:27:12;-1.00;;;-128.00;-1.00
70971;BME280;58632;51.718;19.446;2022-08-19T10:29:39;-1.00;;;-128.00;-1.00
70971;BME280;58632;51.718;19.446;2022-08-19T10:32:07;-1.00;;;-128.00;-1.00
70971;BME280;58632;51.718;19.446;2022-08-19T10:34:35;-1.00;;;-128.00;-1.00
70971;BME280;58632;51.718;19.446;2022-08-19T10:37:02;-1.00;;;-128.00;-1.00
70971;BME280;58632;51.718;19.446;2022-08-19T10:39:32;-1.00;;;-128.00;-1.00
70971;BME280;58632;51.718;19.446;2022-08-19T10:41:59;-1.00;;;-128.00;-1.00
70971;BME280;58632;51.718;19.446;2022-08-19T10:44:24;-1.00;;;-128.00;-1.00
70971;BME280;58632;51.718;19.446;2022-08-19T10:46:51;-1.00;;;-128.00;-1.00
70971;BME280;58632;51.718;19.446;2022-08-19T10:49:17;-1.00;;;-128.00;-1.00
70971;BME280;58632;51.718;19.446;2022-08-19T10:51:44;-1.00;;;-128.00;-1.00
70971;BME280;58632;51.718;19.446;2022-08-19T10:54:29;-1.00;;;-128.00;-1.00
70971;BME280;58632;51.718;19.446;2022-08-19T10:57:14;-1.00;;;-128.00;-1.00
70971;BME280;58632;51.718;19.446;2022-08-19T10:59:40;-1.00;;;-128.00;-1.00
70971;BME280;58632;51.718;19.446;2022-08-19T11:02:07;-1.00;;;-128.00;-1.00
70971;BME280;58632;51.718;19.446;2022-08-19T11:04:36;-1.00;;;-128.00;-1.00
70971;BME280;58632;51.718;19.446;2022-08-19T11:07:02;-1.00;;;-128.00;-1.00
70971;BME280;58632;51.718;19.446;2022-08-19T11:09:29;-1.00;;;-128.00;-1.00
70971;BME280;58632;51.718;19.446;2022-08-19T11:11:55;-1.00;;;-128.00;-1.00
70971;BME280;58632;51.718;19.446;2022-08-19T11:14:22;-1.00;;;-128.00;-1.00
70971;BME280;58632;51.718;19.446;2022-08-19T11:16:49;-1.00;;;-128.00;-1.00
70971;BME280;58632;51.718;19.446;2022-08-19T11:19:16;-1.00;;;-128.00;-1.00
70971;BME280;58632;51.718;19.446;2022-08-19T11:21:46;-1.00;;;-128.00;-1.00
70971;BME280;58632;51.718;19.446;2022-08-19T11:24:23;-1.00;;;-128.00;-1.00
70971;BME280;58632;51.718;19.446;2022-08-19T11:26:52;-1.00;;;-128.00;-1.00
70971;BME280;58632;51.718;19.446;2022-08-19T11:29:20;-1.00;;;-128.00;-1.00
70971;BME280;58632;51.718;19.446;2022-08-19T11:31:48;-1.00;;;-128.00;-1.00
70971;BME280;58632;51.718;19.446;2022-08-19T11:34:17;-1.00;;;-128.00;-1.00
70971;BME280;58632;51.718;19.446;2022-08-19T11:36:45;-1.00;;;-128.00;-1.00
70971;BME280;58632;51.718;19.446;2022-08-19T11:39:14;-1.00;;;-128.00;-1.00
70971;BME280;58632;51.718;19.446;2022-08-19T11:41:41;-1.00;;;-128.00;-1.00
70971;BME280;58632;51.718;19.446;2022-08-19T11:44:07;-1.00;;;-128.00;-1.00
70971;BME280;58632;51.718;19.446;2022-08-19T11:46:34;-1.00;;;-128.00;-1.00
70971;BME280;58632;51.718;19.446;2022-08-19T11:49:01;-1.00;;;-128.00;-1.00
70971;BME280;58632;51.718;19.446;2022-08-19T11:51:29;-1.00;;;-128.00;-1.00
70971;BME280;58632;51.718;19.446;2022-08-19T11:53:56;-1.00;;;-128.00;-1.00
70971;BME280;58632;51.718;19.446;2022-08-19T11:56:23;-1.00;;;-128.00;-1.00
70971;BME280;58632;51.718;19.446;2022-08-19T11:58:49;-1.00;;;-128.00;-1.00
70971;BME280;58632;51.718;19.446;2022-08-19T12:01:18;-1.00;;;-128.00;-1.00
70971;BME280;58632;51.718;19.446;2022-08-19T12:03:45;-1.00;;;-128.00;-1.00
70971;BME280;58632;51.718;19.446;2022-08-19T12:06:14;-1.00;;;-128.00;-1.00
70971;BME280;58632;51.718;19.446;2022-08-19T12:08:42;-1.00;;;-128.00;-1.00
70971;BME280;58632;51.718;19.446;2022-08-19T12:11:08;-1.00;;;-128.00;-1.00
70971;BME280;58632;51.718;19.446;2022-08-19T12:13:34;-1.00;;;-128.00;-1.00
70971;BME280;58632;51.718;19.446;2022-08-19T12:16:01;-1.00;;;-128.00;-1.00
70971;BME280;58632;51.718;19.446;2022-08-19T12:18:32;-1.00;;;-128.00;-1.00
70971;BME280;58632;51.718;19.446;2022-08-19T12:20:59;-1.00;;;-128.00;-1.00
70971;BME280;58632;51.718;19.446;2022-08-19T12:23:26;-1.00;;;-128.00;-1.00
70971;BME280;58632;51.718;19.446;2022-08-19T12:25:52;-1.00;;;-128.00;-1.00
70971;BME280;58632;51.718;19.446;2022-08-19T12:28:22;-1.00;;;-128.00;-1.00
70971;BME280;58632;51.718;19.446;2022-08-19T12:30:50;-1.00;;;-128.00;-1.00
70971;BME280;58632;51.718;19.446;2022-08-19T12:33:17;-1.00;;;-128.00;-1.00
70971;BME280;58632;51.718;19.446;2022-08-19T12:35:44;-1.00;;;-128.00;-1.00
70971;BME280;58632;51.718;19.446;2022-08-19T12:38:12;-1.00;;;-128.00;-1.00
70971;BME280;58632;51.718;19.446;2022-08-19T12:40:38;-1.00;;;-128.00;-1.00
70971;BME280;58632;51.718;19.446;2022-08-19T12:43:08;-1.00;;;-128.00;-1.00
70971;BME280;58632;51.718;19.446;2022-08-19T12:45:34;-1.00;;;-128.00;-1.00
70971;BME280;58632;51.718;19.446;2022-08-19T12:48:00;-1.00;;;-128.00;-1.00
70971;BME280;58632;51.718;19.446;2022-08-19T12:50:25;-1.00;;;-128.00;-1.00
70971;BME280;58632;51.718;19.446;2022-08-19T12:52:52;-1.00;;;-128.00;-1.00
70971;BME280;58632;51.718;19.446;2022-08-19T12:55:18;-1.00;;;-128.00;-1.00
70971;BME280;58632;51.718;19.446;2022-08-19T12:57:44;-1.00;;;-128.00;-1.00
70971;BME280;58632;51.718;19.446;2022-08-19T13:00:15;-1.00;;;-128.00;-1.00
70971;BME280;58632;51.718;19.446;2022-08-19T13:02:44;-1.00;;;-128.00;-1.00
70971;BME280;58632;51.718;19.446;2022-08-19T13:05:13;-1.00;;;-128.00;-1.00
70971;BME280;58632;51.718;19.446;2022-08-19T13:07:42;-1.00;;;-128.00;-1.00
70971;BME280;58632;51.718;19.446;2022-08-19T13:10:14;-1.00;;;-128.00;-1.00